Time;durP1;ratioP1;P1;durP2;ratioP2;P2;SDS_P1;SDS_P2;PMS_P1;PMS_P2;Temp;Humidity;BMP_temperature;BMP_pressure;BME280_temperature;BME280_humidity;BME280_pressure;Samples;Min_cycle;Max_cycle;Signal;HPM_P1;HPM_P2
2022/05/09 00:01:58;;;;;;;8.35;2.25;;;;;;;;;;4935669;29;20083;-82
2022/05/09 00:04:23;;;;;;;4.70;2.15;;;;;;;;;;4919323;29;20027;-83
2022/05/09 00:06:49;;;;;;;7.25;2.53;;;;;;;;;;4930327;29;20106;-82
2022/05/09 00:09:15;;;;;;;4.38;2.00;;;;;;;;;;4909034;29;20042;-83
2022/05/09 00:11:41;;;;;;;6.85;2.15;;;;;;;;;;4913513;29;20092;-82
2022/05/09 00:14:07;;;;;;;8.40;2.13;;;;;;;;;;4912098;29;20420;-82
2022/05/09 00:16:35;;;;;;;8.55;2.70;;;;;;;;;;4913415;29;20119;-82
2022/05/09 00:19:05;;;;;;;9.15;2.47;;;;;;;;;;4913578;29;20032;-83
2022/05/09 00:21:34;;;;;;;5.63;2.03;;;;;;;;;;4899435;29;20036;-82
2022/05/09 00:24:00;;;;;;;5.22;2.38;;;;;;;;;;4900577;29;20039;-82
2022/05/09 00:26:31;;;;;;;7.15;1.75;;;;;;;;;;4910617;29;20028;-82
2022/05/09 00:28:57;;;;;;;6.13;1.98;;;;;;;;;;4936849;29;20024;-83
2022/05/09 00:31:23;;;;;;;4.25;1.48;;;;;;;;;;4935580;29;20028;-83
2022/05/09 00:33:49;;;;;;;5.90;1.63;;;;;;;;;;4934968;29;20030;-83
2022/05/09 00:36:18;;;;;;;3.55;1.60;;;;;;;;;;4919457;29;20070;-81
2022/05/09 00:38:44;;;;;;;5.50;1.80;;;;;;;;;;4933764;29;20070;-82
2022/05/09 00:43:55;;;;;;;7.38;2.03;;;;;;;;;;4920930;29;20035;-81
2022/05/09 00:46:24;;;;;;;5.22;2.15;;;;;;;;;;4937181;29;20523;-82
2022/05/09 00:48:49;;;;;;;5.35;1.77;;;;;;;;;;4950903;29;20032;-82
2022/05/09 00:51:18;;;;;;;6.55;1.90;;;;;;;;;;4935807;29;20071;-82
2022/05/09 00:53:44;;;;;;;6.60;1.98;;;;;;;;;;4918746;29;20047;-81
2022/05/09 00:56:14;;;;;;;4.22;1.70;;;;;;;;;;4915860;29;20525;-86
2022/05/09 00:58:45;;;;;;;5.60;2.10;;;;;;;;;;4926679;29;20038;-85
2022/05/09 01:01:11;;;;;;;7.32;2.03;;;;;;;;;;4919152;29;20043;-86
2022/05/09 01:03:40;;;;;;;9.98;1.95;;;;;;;;;;4896922;29;20427;-84
2022/05/09 01:06:06;;;;;;;7.72;1.73;;;;;;;;;;4910839;29;20024;-81
2022/05/09 01:08:32;;;;;;;8.63;1.75;;;;;;;;;;4934334;29;20055;-81
2022/05/09 01:10:58;;;;;;;7.28;1.73;;;;;;;;;;4950084;29;20078;-84
2022/05/09 01:13:25;;;;;;;6.35;1.83;;;;;;;;;;4934219;29;20028;-83
2022/05/09 01:15:53;;;;;;;7.55;2.15;;;;;;;;;;4918610;29;20058;-84
2022/05/09 01:18:19;;;;;;;6.53;1.83;;;;;;;;;;4918538;29;20056;-84
2022/05/09 01:20:47;;;;;;;7.05;1.88;;;;;;;;;;4927390;29;20039;-83
2022/05/09 01:23:16;;;;;;;6.88;2.17;;;;;;;;;;4918125;29;20032;-84
2022/05/09 01:25:41;;;;;;;6.28;2.35;;;;;;;;;;4918406;29;20047;-86
2022/05/09 01:28:08;;;;;;;4.53;1.63;;;;;;;;;;4934202;29;20027;-85
2022/05/09 01:30:55;;;;;;;7.82;2.00;;;;;;;;;;4934309;29;20111;-84
2022/05/09 01:33:24;;;;;;;13.27;2.35;;;;;;;;;;4918138;29;20039;-85
2022/05/09 01:35:52;;;;;;;5.00;1.88;;;;;;;;;;4935478;29;20055;-84
2022/05/09 01:38:30;;;;;;;4.00;1.70;;;;;;;;;;4925049;29;20479;-85
2022/05/09 01:40:56;;;;;;;6.18;2.10;;;;;;;;;;4944704;29;20111;-83
2022/05/09 01:43:33;;;;;;;7.22;1.75;;;;;;;;;;4919915;29;20067;-85
2022/05/09 01:46:03;;;;;;;5.65;1.70;;;;;;;;;;4936959;29;20380;-85
2022/05/09 01:51:12;;;;;;;5.72;2.40;;;;;;;;;;4934946;29;20098;-86
2022/05/09 01:53:38;;;;;;;9.32;2.17;;;;;;;;;;4917824;29;20492;-82
2022/05/09 01:56:13;;;;;;;7.88;1.88;;;;;;;;;;4925073;29;20245;-81
2022/05/09 01:58:47;;;;;;;7.47;2.20;;;;;;;;;;4919164;29;20107;-83
2022/05/09 02:01:13;;;;;;;5.25;1.88;;;;;;;;;;4934726;29;20115;-82
2022/05/09 02:03:38;;;;;;;8.82;2.90;;;;;;;;;;4934462;29;20032;-82
2022/05/09 02:06:06;;;;;;;7.43;2.42;;;;;;;;;;4917972;29;20031;-81
2022/05/09 02:08:32;;;;;;;6.22;2.55;;;;;;;;;;4933675;29;20500;-80
2022/05/09 02:10:57;;;;;;;5.75;2.45;;;;;;;;;;4931165;29;20032;-81
2022/05/09 02:13:23;;;;;;;5.10;2.10;;;;;;;;;;4916886;29;20373;-80
2022/05/09 02:15:48;;;;;;;6.80;2.33;;;;;;;;;;4899037;29;20028;-82
2022/05/09 02:18:14;;;;;;;8.95;2.90;;;;;;;;;;4916058;29;20032;-82
2022/05/09 02:20:39;;;;;;;11.13;2.20;;;;;;;;;;4914460;29;20429;-82
2022/05/09 02:23:05;;;;;;;10.05;2.58;;;;;;;;;;4914461;29;20032;-82
2022/05/09 02:25:31;;;;;;;5.60;2.33;;;;;;;;;;4898856;29;20408;-82
2022/05/09 02:27:57;;;;;;;6.18;2.30;;;;;;;;;;4914901;29;20045;-82
2022/05/09 02:30:23;;;;;;;8.32;2.50;;;;;;;;;;4923195;29;20024;-83
2022/05/09 02:32:49;;;;;;;6.80;2.28;;;;;;;;;;4915230;29;20035;-83
2022/05/09 02:35:15;;;;;;;13.20;2.63;;;;;;;;;;4930154;29;20496;-87
2022/05/09 02:37:41;;;;;;;7.13;2.30;;;;;;;;;;4917319;29;20032;-85
2022/05/09 02:40:07;;;;;;;8.57;2.78;;;;;;;;;;4919552;29;20473;-86
2022/05/09 02:42:34;;;;;;;7.18;3.08;;;;;;;;;;4892191;29;20051;-86
2022/05/09 02:44:59;;;;;;;5.15;2.10;;;;;;;;;;4937343;29;20063;-84
2022/05/09 02:47:26;;;;;;;8.95;2.35;;;;;;;;;;4950681;28;20031;-85
2022/05/09 02:49:51;;;;;;;8.65;2.50;;;;;;;;;;4962418;28;20044;-85
2022/05/09 02:52:17;;;;;;;10.68;2.83;;;;;;;;;;4955780;29;20034;-82
2022/05/09 02:54:42;;;;;;;7.07;2.58;;;;;;;;;;4950797;29;20035;-83
2022/05/09 02:57:08;;;;;;;8.52;3.22;;;;;;;;;;4938227;29;20059;-82
2022/05/09 02:59:36;;;;;;;8.63;3.15;;;;;;;;;;4938129;29;20032;-81
2022/05/09 03:02:02;;;;;;;6.53;2.80;;;;;;;;;;4927358;29;20058;-83
2022/05/09 03:04:41;;;;;;;7.60;3.00;;;;;;;;;;4928130;29;20513;-83
2022/05/09 03:07:09;;;;;;;7.38;2.63;;;;;;;;;;4918696;29;20507;-83
2022/05/09 03:09:35;;;;;;;10.25;3.08;;;;;;;;;;4918592;29;20098;-83
2022/05/09 03:12:01;;;;;;;11.95;3.38;;;;;;;;;;4902102;29;20047;-84
2022/05/09 03:14:27;;;;;;;6.93;2.53;;;;;;;;;;4917034;29;20377;-83
2022/05/09 03:16:52;;;;;;;9.15;2.92;;;;;;;;;;4918181;29;20399;-87
2022/05/09 03:19:18;;;;;;;8.15;2.70;;;;;;;;;;4911250;29;20031;-89
2022/05/09 03:21:45;;;;;;;8.45;2.50;;;;;;;;;;4903113;29;20563;-88
2022/05/09 03:24:10;;;;;;;5.25;2.50;;;;;;;;;;4902723;29;20060;-88
2022/05/09 03:26:36;;;;;;;8.45;2.30;;;;;;;;;;4918045;29;20054;-89
2022/05/09 03:29:01;;;;;;;8.63;2.55;;;;;;;;;;4888640;29;20036;-89
2022/05/09 03:31:27;;;;;;;7.75;2.65;;;;;;;;;;4905648;29;20031;-88
2022/05/09 03:33:55;;;;;;;7.35;2.60;;;;;;;;;;4922725;29;20054;-85
2022/05/09 03:36:20;;;;;;;9.15;2.72;;;;;;;;;;4920444;29;20488;-87
2022/05/09 03:38:46;;;;;;;11.65;3.10;;;;;;;;;;4901787;29;20059;-84
2022/05/09 03:41:11;;;;;;;10.43;2.85;;;;;;;;;;4918343;29;20031;-86
2022/05/09 03:43:36;;;;;;;7.93;2.88;;;;;;;;;;4932613;29;20040;-85
2022/05/09 03:46:02;;;;;;;15.07;3.63;;;;;;;;;;4918601;29;20025;-86
2022/05/09 03:48:31;;;;;;;11.10;3.50;;;;;;;;;;4932581;29;20040;-86
2022/05/09 03:50:56;;;;;;;13.27;3.60;;;;;;;;;;4905279;29;20652;-87
2022/05/09 03:53:23;;;;;;;7.95;3.88;;;;;;;;;;4900392;29;20124;-88
2022/05/09 03:55:49;;;;;;;6.90;2.40;;;;;;;;;;4898638;29;20039;-85
2022/05/09 03:58:15;;;;;;;12.15;2.92;;;;;;;;;;4899442;29;20322;-87
2022/05/09 04:00:41;;;;;;;11.55;3.45;;;;;;;;;;4898972;29;20047;-85
2022/05/09 04:03:07;;;;;;;7.50;2.78;;;;;;;;;;4897785;29;20116;-85
2022/05/09 04:05:36;;;;;;;12.48;3.28;;;;;;;;;;4906808;29;20042;-85
2022/05/09 04:08:03;;;;;;;9.10;2.90;;;;;;;;;;4912661;29;20118;-85
2022/05/09 04:10:30;;;;;;;8.10;2.83;;;;;;;;;;4920662;29;20036;-88
2022/05/09 04:12:56;;;;;;;10.65;2.90;;;;;;;;;;4951343;29;20484;-84
2022/05/09 04:18:06;;;;;;;12.93;4.47;;;;;;;;;;4919728;29;20031;-86
2022/05/09 04:20:31;;;;;;;8.07;3.40;;;;;;;;;;4916963;29;20044;-85
2022/05/09 04:22:57;;;;;;;8.57;3.22;;;;;;;;;;4928511;29;20546;-84
2022/05/09 04:25:23;;;;;;;9.40;3.35;;;;;;;;;;4935588;29;20118;-87
2022/05/09 04:27:50;;;;;;;9.18;3.42;;;;;;;;;;4936797;29;20027;-87
2022/05/09 04:30:16;;;;;;;11.80;3.63;;;;;;;;;;4920140;29;20113;-89
2022/05/09 04:32:41;;;;;;;9.18;3.40;;;;;;;;;;4920595;29;20075;-85
2022/05/09 04:35:11;;;;;;;18.60;3.83;;;;;;;;;;4920980;29;20040;-86
2022/05/09 04:37:39;;;;;;;8.77;3.17;;;;;;;;;;4914382;29;20032;-85
2022/05/09 04:40:05;;;;;;;12.98;3.13;;;;;;;;;;4915237;29;20039;-84
2022/05/09 04:42:30;;;;;;;8.88;3.28;;;;;;;;;;4953791;29;20127;-85
2022/05/09 04:44:56;;;;;;;12.07;3.58;;;;;;;;;;4922505;29;20157;-85
2022/05/09 04:47:21;;;;;;;12.60;4.10;;;;;;;;;;4935110;29;20024;-86
2022/05/09 04:49:47;;;;;;;10.10;3.33;;;;;;;;;;4937861;29;20115;-86
2022/05/09 04:52:12;;;;;;;14.70;3.70;;;;;;;;;;4929173;29;20483;-85
2022/05/09 04:54:38;;;;;;;10.70;4.05;;;;;;;;;;4917022;29;20039;-85
2022/05/09 04:57:03;;;;;;;12.07;5.15;;;;;;;;;;4918889;29;20040;-84
2022/05/09 04:59:29;;;;;;;12.75;6.40;;;;;;;;;;4934977;29;20114;-85
2022/05/09 05:01:54;;;;;;;10.07;4.28;;;;;;;;;;4936323;29;20569;-86
2022/05/09 05:04:20;;;;;;;24.05;5.95;;;;;;;;;;4935704;29;20027;-85
2022/05/09 05:06:45;;;;;;;11.57;4.18;;;;;;;;;;4935976;29;20024;-87
2022/05/09 05:09:11;;;;;;;9.55;3.20;;;;;;;;;;4938492;29;20035;-87
2022/05/09 05:11:37;;;;;;;10.38;3.97;;;;;;;;;;4900614;29;20043;-86
2022/05/09 05:14:03;;;;;;;12.23;3.90;;;;;;;;;;4900049;29;20083;-83
2022/05/09 05:19:17;;;;;;;13.38;4.70;;;;;;;;;;4916952;29;20036;-82
2022/05/09 05:21:42;;;;;;;13.55;3.00;;;;;;;;;;4917692;29;20407;-82
2022/05/09 05:24:08;;;;;;;8.80;3.30;;;;;;;;;;4928200;29;20031;-82
2022/05/09 05:26:33;;;;;;;16.75;4.18;;;;;;;;;;4916802;29;20035;-82
2022/05/09 05:28:59;;;;;;;16.23;4.25;;;;;;;;;;4899260;29;20052;-82
2022/05/09 05:31:24;;;;;;;9.90;4.25;;;;;;;;;;4900236;29;20570;-85
2022/05/09 05:33:50;;;;;;;14.82;5.18;;;;;;;;;;4900919;29;20051;-84
2022/05/09 05:36:18;;;;;;;15.88;4.28;;;;;;;;;;4931800;29;20032;-84
2022/05/09 05:38:44;;;;;;;8.90;3.17;;;;;;;;;;4917200;29;20036;-86
2022/05/09 05:41:10;;;;;;;11.98;3.47;;;;;;;;;;4892670;29;20049;-83
2022/05/09 05:43:36;;;;;;;10.60;3.20;;;;;;;;;;4917141;29;20038;-79
2022/05/09 05:46:01;;;;;;;32.20;4.57;;;;;;;;;;4937616;29;20032;-86
2022/05/09 05:48:27;;;;;;;13.75;4.32;;;;;;;;;;4919064;29;20035;-84
2022/05/09 05:50:56;;;;;;;;;;;;;;;;;;4919218;29;20117;-84
2022/05/09 05:53:21;;;;;;;15.85;4.72;;;;;;;;;;4935300;29;19915;-83
2022/05/09 05:55:50;;;;;;;;;;;;;;;;;;4920094;29;20036;-84
2022/05/09 05:58:15;;;;;;;19.10;4.28;;;;;;;;;;4922673;29;19920;-86
2022/05/09 06:00:41;;;;;;;15.13;4.10;;;;;;;;;;4935069;29;20075;-85
2022/05/09 06:03:09;;;;;;;12.18;2.85;;;;;;;;;;4935286;29;20027;-87
2022/05/09 06:05:35;;;;;;;13.73;4.72;;;;;;;;;;4918279;29;20438;-85
2022/05/09 06:08:03;;;;;;;10.02;3.08;;;;;;;;;;4919010;29;20070;-88
2022/05/09 06:10:30;;;;;;;9.75;3.03;;;;;;;;;;4952100;29;20028;-86
2022/05/09 06:12:55;;;;;;;12.75;3.75;;;;;;;;;;4953755;29;20040;-84
2022/05/09 06:15:33;;;;;;;8.75;2.58;;;;;;;;;;4921625;29;20052;-87
2022/05/09 06:17:59;;;;;;;10.30;3.23;;;;;;;;;;4923479;29;20037;-87
2022/05/09 06:20:26;;;;;;;9.90;2.85;;;;;;;;;;4920775;29;20492;-85
2022/05/09 06:22:54;;;;;;;11.63;3.38;;;;;;;;;;4904277;29;20039;-84
2022/05/09 06:25:20;;;;;;;15.18;3.15;;;;;;;;;;4905437;29;20032;-83
2022/05/09 06:27:46;;;;;;;8.35;2.70;;;;;;;;;;4905274;29;20483;-84
2022/05/09 06:30:12;;;;;;;7.28;2.78;;;;;;;;;;4911745;29;20047;-85
2022/05/09 06:32:38;;;;;;;10.40;3.53;;;;;;;;;;4930174;29;20024;-87
2022/05/09 06:35:07;;;;;;;12.13;3.00;;;;;;;;;;4945973;29;20145;-88
2022/05/09 06:37:35;;;;;;;10.35;2.70;;;;;;;;;;4925985;29;20067;-84
2022/05/09 06:40:01;;;;;;;10.45;3.33;;;;;;;;;;4923097;29;20043;-90
2022/05/09 06:42:30;;;;;;;18.33;3.08;;;;;;;;;;4958557;29;20278;-90
2022/05/09 06:44:56;;;;;;;10.85;2.70;;;;;;;;;;4955474;29;20120;-88
2022/05/09 06:47:22;;;;;;;9.48;3.05;;;;;;;;;;4941368;29;20035;-88
2022/05/09 06:49:48;;;;;;;13.40;2.70;;;;;;;;;;4915147;29;20028;-87
2022/05/09 06:52:14;;;;;;;16.35;3.00;;;;;;;;;;4905885;29;20035;-88
2022/05/09 06:54:39;;;;;;;10.23;3.20;;;;;;;;;;4955548;29;20036;-92
2022/05/09 06:57:05;;;;;;;15.73;3.70;;;;;;;;;;4924611;29;20063;-89
2022/05/09 06:59:34;;;;;;;8.25;3.55;;;;;;;;;;4940205;29;20067;-87
2022/05/09 07:02:00;;;;;;;14.20;3.17;;;;;;;;;;4936375;29;20040;-85
2022/05/09 07:04:25;;;;;;;12.15;3.53;;;;;;;;;;4917325;29;20043;-85
2022/05/09 07:06:51;;;;;;;10.15;3.35;;;;;;;;;;4919858;29;20032;-83
2022/05/09 07:09:16;;;;;;;9.20;2.80;;;;;;;;;;4934613;29;20107;-83
2022/05/09 07:11:42;;;;;;;9.63;2.58;;;;;;;;;;4902402;29;20135;-85
2022/05/09 07:14:08;;;;;;;8.63;3.05;;;;;;;;;;4918658;29;20035;-84
2022/05/09 07:16:34;;;;;;;11.52;2.80;;;;;;;;;;4902864;29;20036;-87
2022/05/09 07:18:59;;;;;;;9.02;3.22;;;;;;;;;;4907516;29;20027;-83
2022/05/09 07:21:25;;;;;;;15.13;2.92;;;;;;;;;;4914490;29;20505;-84
2022/05/09 07:23:51;;;;;;;8.50;3.58;;;;;;;;;;4938820;29;20044;-86
2022/05/09 07:26:19;;;;;;;14.50;3.75;;;;;;;;;;4939850;29;20024;-85
2022/05/09 07:28:45;;;;;;;9.57;3.45;;;;;;;;;;4938682;29;20055;-84
2022/05/09 07:31:10;;;;;;;10.77;3.72;;;;;;;;;;4940275;29;20115;-88
2022/05/09 07:33:36;;;;;;;12.35;2.85;;;;;;;;;;4922184;29;20388;-87
2022/05/09 07:36:02;;;;;;;14.90;4.10;;;;;;;;;;4920300;29;20470;-89
2022/05/09 07:38:27;;;;;;;9.48;2.92;;;;;;;;;;4927782;29;20028;-84
2022/05/09 07:40:56;;;;;;;10.38;3.25;;;;;;;;;;4935618;29;20116;-83
2022/05/09 07:43:23;;;;;;;10.35;3.45;;;;;;;;;;4936622;29;20098;-81
2022/05/09 07:45:51;;;;;;;12.15;3.78;;;;;;;;;;4940262;29;20043;-88
2022/05/09 07:48:21;;;;;;;14.07;3.95;;;;;;;;;;4937411;29;20032;-83
2022/05/09 07:50:47;;;;;;;8.77;2.90;;;;;;;;;;4952850;29;20059;-84
2022/05/09 07:53:18;;;;;;;10.50;3.05;;;;;;;;;;4914692;29;20066;-83
2022/05/09 07:55:47;;;;;;;11.02;3.08;;;;;;;;;;4927946;29;20079;-84
2022/05/09 07:58:17;;;;;;;8.45;2.50;;;;;;;;;;4904279;29;20086;-86
2022/05/09 08:00:45;;;;;;;11.38;2.88;;;;;;;;;;4903963;29;20400;-86
2022/05/09 08:03:21;;;;;;;7.95;2.45;;;;;;;;;;4950890;29;20452;-83
2022/05/09 08:05:47;;;;;;;14.95;3.30;;;;;;;;;;4919211;29;20036;-84
2022/05/09 08:08:13;;;;;;;9.60;2.75;;;;;;;;;;4951422;29;20523;-85
2022/05/09 08:10:39;;;;;;;8.77;2.58;;;;;;;;;;4931024;29;20028;-84
2022/05/09 08:13:05;;;;;;;11.82;3.13;;;;;;;;;;4927005;29;20166;-86
2022/05/09 08:15:31;;;;;;;14.35;2.97;;;;;;;;;;4919709;29;20067;-86
2022/05/09 08:18:01;;;;;;;13.10;3.25;;;;;;;;;;4935744;29;20031;-83
2022/05/09 08:20:28;;;;;;;12.75;2.53;;;;;;;;;;4922710;29;20031;-86
2022/05/09 08:23:01;;;;;;;18.50;4.43;;;;;;;;;;4923889;29;20039;-84
2022/05/09 08:25:27;;;;;;;15.70;4.10;;;;;;;;;;4919652;29;20031;-86
2022/05/09 08:27:52;;;;;;;14.68;2.85;;;;;;;;;;4926286;29;20028;-87
2022/05/09 08:30:18;;;;;;;8.05;3.20;;;;;;;;;;4908989;29;20036;-86
2022/05/09 08:32:43;;;;;;;14.45;2.78;;;;;;;;;;4902858;29;20403;-87
2022/05/09 08:35:09;;;;;;;9.27;2.80;;;;;;;;;;4918298;29;20237;-86
2022/05/09 08:37:35;;;;;;;14.05;3.95;;;;;;;;;;4918800;29;20122;-85
2022/05/09 08:40:01;;;;;;;21.48;3.83;;;;;;;;;;4918599;29;20037;-87
2022/05/09 08:42:35;;;;;;;8.90;3.05;;;;;;;;;;4903105;29;20043;-86
2022/05/09 08:45:10;;;;;;;10.20;2.95;;;;;;;;;;4908137;29;20437;-86
2022/05/09 08:47:59;;;;;;;10.52;2.67;;;;;;;;;;4924646;29;20036;-87
2022/05/09 08:50:31;;;;;;;12.68;3.22;;;;;;;;;;4950868;29;20091;-85
2022/05/09 08:52:59;;;;;;;9.18;3.17;;;;;;;;;;4918990;29;20051;-85
2022/05/09 08:55:27;;;;;;;9.07;2.85;;;;;;;;;;4918684;29;20482;-84
2022/05/09 08:57:56;;;;;;;7.50;2.70;;;;;;;;;;4935567;29;20110;-85
2022/05/09 09:00:27;;;;;;;10.43;2.67;;;;;;;;;;4918130;29;20781;-85
2022/05/09 09:03:12;;;;;;;9.82;2.72;;;;;;;;;;4934581;29;20020;-85
2022/05/09 09:05:39;;;;;;;9.15;2.92;;;;;;;;;;4928101;29;20036;-86
2022/05/09 09:08:14;;;;;;;14.48;2.70;;;;;;;;;;4950924;29;20039;-86
2022/05/09 09:10:59;;;;;;;7.53;2.20;;;;;;;;;;4936477;29;20024;-85
2022/05/09 09:13:36;;;;;;;9.27;2.58;;;;;;;;;;4937101;29;20036;-85
2022/05/09 09:16:15;;;;;;;13.00;3.40;;;;;;;;;;4904320;29;20032;-84
2022/05/09 09:18:44;;;;;;;14.93;4.80;;;;;;;;;;4952697;29;20027;-85
2022/05/09 09:21:28;;;;;;;9.23;2.55;;;;;;;;;;4891578;29;20039;-85
2022/05/09 09:23:54;;;;;;;7.00;2.40;;;;;;;;;;4930706;29;20047;-86
2022/05/09 09:26:39;;;;;;;7.13;2.83;;;;;;;;;;4916978;29;20028;-84
2022/05/09 09:29:15;;;;;;;6.38;2.22;;;;;;;;;;4914735;29;20044;-83
2022/05/09 09:31:43;;;;;;;10.20;2.78;;;;;;;;;;4897568;29;20025;-85
2022/05/09 09:34:16;;;;;;;12.23;3.63;;;;;;;;;;4895680;29;20035;-84
2022/05/09 09:36:45;;;;;;;9.15;2.72;;;;;;;;;;4949391;28;20278;-82
2022/05/09 09:39:13;;;;;;;15.57;3.72;;;;;;;;;;4913656;29;20038;-81
2022/05/09 09:41:39;;;;;;;10.10;2.75;;;;;;;;;;4914230;29;20074;-83
2022/05/09 09:44:07;;;;;;;15.27;2.97;;;;;;;;;;4923337;29;20059;-83
2022/05/09 09:46:32;;;;;;;5.90;2.40;;;;;;;;;;4926857;29;20082;-83
2022/05/09 09:49:08;;;;;;;13.07;3.35;;;;;;;;;;4933736;29;20262;-83
2022/05/09 09:51:48;;;;;;;6.75;2.67;;;;;;;;;;4949289;29;20062;-82
2022/05/09 09:54:17;;;;;;;18.55;2.90;;;;;;;;;;4918067;29;20091;-83
2022/05/09 09:56:43;;;;;;;9.60;2.72;;;;;;;;;;4934514;29;20120;-81
2022/05/09 09:59:09;;;;;;;10.07;2.67;;;;;;;;;;4933258;29;20040;-83
2022/05/09 10:01:35;;;;;;;7.68;3.03;;;;;;;;;;4928443;29;20042;-82
2022/05/09 10:04:12;;;;;;;13.13;3.38;;;;;;;;;;4911534;29;20035;-80
2022/05/09 10:06:55;;;;;;;8.27;2.55;;;;;;;;;;4917689;29;20233;-81
2022/05/09 10:09:21;;;;;;;11.95;2.45;;;;;;;;;;4934397;29;20028;-82
2022/05/09 10:11:47;;;;;;;8.32;2.67;;;;;;;;;;4935056;29;20079;-82
2022/05/09 10:14:35;;;;;;;9.90;2.42;;;;;;;;;;4921276;29;20039;-88
2022/05/09 10:17:14;;;;;;;15.43;3.13;;;;;;;;;;4933345;29;20028;-87
2022/05/09 10:19:45;;;;;;;5.70;2.22;;;;;;;;;;4931853;29;20056;-84
2022/05/09 10:25:11;;;;;;;11.60;2.80;;;;;;;;;;4921635;29;20027;-82
2022/05/09 10:27:38;;;;;;;8.57;2.50;;;;;;;;;;4937800;29;20110;-83
2022/05/09 10:30:04;;;;;;;8.63;2.65;;;;;;;;;;4919427;29;20058;-82
2022/05/09 10:32:30;;;;;;;12.18;2.45;;;;;;;;;;4917354;29;20046;-79
2022/05/09 10:34:59;;;;;;;9.13;2.40;;;;;;;;;;4928139;29;20119;-79
2022/05/09 10:37:38;;;;;;;6.53;2.53;;;;;;;;;;4926044;29;20032;-80
2022/05/09 10:40:09;;;;;;;6.32;2.75;;;;;;;;;;4933877;29;20028;-80
2022/05/09 10:42:38;;;;;;;7.20;2.20;;;;;;;;;;4933742;29;20499;-80
2022/05/09 10:45:16;;;;;;;13.43;2.67;;;;;;;;;;4933686;29;20028;-79
2022/05/09 10:47:45;;;;;;;6.90;2.30;;;;;;;;;;4933929;29;20036;-79
2022/05/09 10:50:20;;;;;;;9.90;3.42;;;;;;;;;;4934060;29;20026;-79
2022/05/09 10:53:03;;;;;;;9.10;2.42;;;;;;;;;;4927138;29;20052;-79
2022/05/09 10:55:35;;;;;;;11.68;4.10;;;;;;;;;;4931053;29;20052;-78
2022/05/09 10:58:19;;;;;;;11.05;2.70;;;;;;;;;;4935000;29;20036;-78
2022/05/09 11:00:47;;;;;;;8.60;2.70;;;;;;;;;;4936169;29;20043;-79
2022/05/09 11:03:12;;;;;;;;;;;;;;;;;;4952154;29;20039;-79
2022/05/09 11:05:50;;;;;;;6.22;2.47;;;;;;;;;;4968002;28;19915;-79
2022/05/09 11:08:35;;;;;;;8.98;2.35;;;;;;;;;;4937221;29;20034;-80
2022/05/09 11:11:26;;;;;;;6.90;2.38;;;;;;;;;;4930809;29;20468;-79
2022/05/09 11:13:58;;;;;;;10.48;2.20;;;;;;;;;;4899216;29;20108;-79
2022/05/09 11:16:33;;;;;;;10.55;3.10;;;;;;;;;;4930164;29;20036;-81
2022/05/09 11:18:58;;;;;;;7.43;2.30;;;;;;;;;;4898256;29;20042;-80
2022/05/09 11:21:27;;;;;;;8.10;2.53;;;;;;;;;;4963379;23;20023;-76
2022/05/09 11:23:55;;;;;;;8.52;2.33;;;;;;;;;;4938338;29;20039;-75
2022/05/09 11:26:30;;;;;;;6.82;2.55;;;;;;;;;;4954693;29;20026;-76
2022/05/09 11:29:04;;;;;;;7.80;2.20;;;;;;;;;;4969684;28;20050;-78
2022/05/09 11:31:38;;;;;;;7.07;2.20;;;;;;;;;;4951186;29;20030;-76
2022/05/09 11:34:21;;;;;;;6.22;2.50;;;;;;;;;;4936451;29;20028;-76
2022/05/09 11:37:04;;;;;;;6.40;2.28;;;;;;;;;;4936575;29;20036;-77
2022/05/09 11:39:36;;;;;;;8.48;2.72;;;;;;;;;;4936280;29;20103;-75
2022/05/09 11:45:07;;;;;;;5.30;1.90;;;;;;;;;;4931990;29;20047;-75
2022/05/09 11:47:59;;;;;;;8.57;2.30;;;;;;;;;;4946087;29;20036;-76
2022/05/09 11:50:32;;;;;;;10.88;1.90;;;;;;;;;;4915794;29;20024;-75
2022/05/09 11:52:59;;;;;;;6.00;1.83;;;;;;;;;;4915449;29;20032;-77
2022/05/09 11:55:25;;;;;;;5.32;2.30;;;;;;;;;;4915872;29;20119;-77
2022/05/09 11:57:53;;;;;;;9.63;2.17;;;;;;;;;;4931571;29;20544;-76
2022/05/09 12:00:26;;;;;;;7.70;2.10;;;;;;;;;;4931775;29;20032;-76
2022/05/09 12:03:05;;;;;;;5.43;2.13;;;;;;;;;;4937480;29;20035;-77
2022/05/09 12:05:31;;;;;;;10.70;2.55;;;;;;;;;;4935885;29;20031;-76
2022/05/09 12:08:04;;;;;;;5.50;2.00;;;;;;;;;;4935094;29;20046;-77
2022/05/09 12:10:31;;;;;;;4.03;1.63;;;;;;;;;;4934626;29;20031;-76
2022/05/09 12:12:58;;;;;;;5.93;1.75;;;;;;;;;;4934536;29;20031;-78
2022/05/09 12:15:24;;;;;;;7.32;2.10;;;;;;;;;;4950566;29;20032;-77
2022/05/09 12:18:00;;;;;;;5.32;1.90;;;;;;;;;;4946036;29;20036;-74
2022/05/09 12:20:29;;;;;;;4.53;2.05;;;;;;;;;;4933395;29;20036;-77
2022/05/09 12:22:59;;;;;;;4.65;1.92;;;;;;;;;;4899193;29;20061;-76
2022/05/09 12:25:34;;;;;;;6.05;2.28;;;;;;;;;;4915627;29;20060;-76
2022/05/09 12:28:03;;;;;;;8.77;2.90;;;;;;;;;;4915481;29;20035;-74
2022/05/09 12:30:40;;;;;;;7.68;1.88;;;;;;;;;;4947235;29;20024;-77
2022/05/09 12:33:12;;;;;;;6.38;1.90;;;;;;;;;;4926093;29;20028;-77
2022/05/09 12:35:38;;;;;;;10.65;2.45;;;;;;;;;;4933899;29;20126;-76
2022/05/09 12:38:03;;;;;;;6.70;2.05;;;;;;;;;;4949947;29;20511;-77
2022/05/09 12:40:29;;;;;;;6.03;1.77;;;;;;;;;;4949388;29;20042;-77
2022/05/09 12:42:57;;;;;;;13.73;2.85;;;;;;;;;;4934622;29;20111;-76
2022/05/09 12:45:23;;;;;;;7.45;2.00;;;;;;;;;;4933763;29;20087;-76
2022/05/09 12:47:50;;;;;;;6.53;1.98;;;;;;;;;;4916995;29;20491;-76
2022/05/09 12:50:27;;;;;;;7.65;2.15;;;;;;;;;;4934332;29;20114;-76
2022/05/09 12:52:55;;;;;;;4.75;1.90;;;;;;;;;;4936836;28;20114;-77
2022/05/09 12:58:24;;;;;;;6.97;2.17;;;;;;;;;;4933201;29;19910;-75
2022/05/09 13:00:55;;;;;;;6.95;2.67;;;;;;;;;;4922639;29;20047;-75
2022/05/09 13:03:20;;;;;;;8.30;2.83;;;;;;;;;;4948419;28;20027;-77
2022/05/09 13:05:46;;;;;;;6.80;3.00;;;;;;;;;;4933263;29;20047;-76
2022/05/09 13:08:14;;;;;;;8.25;2.58;;;;;;;;;;4934543;29;20050;-77
2022/05/09 13:10:53;;;;;;;11.38;2.60;;;;;;;;;;4932486;29;20035;-77
2022/05/09 13:13:24;;;;;;;9.10;2.17;;;;;;;;;;4934024;29;20024;-76
2022/05/09 13:15:51;;;;;;;7.32;1.95;;;;;;;;;;4931966;29;20031;-76
2022/05/09 13:18:19;;;;;;;9.23;2.35;;;;;;;;;;4919916;29;20518;-76
2022/05/09 13:20:52;;;;;;;15.25;2.67;;;;;;;;;;4944516;28;20519;-76
2022/05/09 13:23:24;;;;;;;9.55;2.00;;;;;;;;;;4933495;29;20058;-76
2022/05/09 13:25:51;;;;;;;4.10;2.00;;;;;;;;;;4934053;29;20054;-76
2022/05/09 13:28:19;;;;;;;6.72;2.22;;;;;;;;;;4933999;29;20028;-77
2022/05/09 13:30:50;;;;;;;6.97;1.90;;;;;;;;;;4947143;29;20472;-78
2022/05/09 13:33:17;;;;;;;9.18;2.60;;;;;;;;;;4933117;29;20024;-76
2022/05/09 13:35:47;;;;;;;7.20;2.10;;;;;;;;;;4933823;29;20086;-77
2022/05/09 13:38:18;;;;;;;6.57;2.00;;;;;;;;;;4948670;29;20475;-77
2022/05/09 13:40:44;;;;;;;7.40;1.95;;;;;;;;;;4938047;29;20455;-77
2022/05/09 13:43:12;;;;;;;5.00;2.00;;;;;;;;;;4943777;29;20468;-77
2022/05/09 13:45:38;;;;;;;6.47;1.92;;;;;;;;;;4913899;29;20499;-75
2022/05/09 13:48:08;;;;;;;10.02;2.35;;;;;;;;;;4914104;29;20064;-76
2022/05/09 13:50:36;;;;;;;5.95;2.25;;;;;;;;;;4915475;29;20110;-76
2022/05/09 13:53:03;;;;;;;5.18;2.00;;;;;;;;;;4929895;29;20032;-75
2022/05/09 13:55:31;;;;;;;6.03;2.25;;;;;;;;;;4929943;29;20043;-75
2022/05/09 13:57:58;;;;;;;5.30;2.10;;;;;;;;;;4898613;29;20488;-75
2022/05/09 14:00:27;;;;;;;4.63;1.98;;;;;;;;;;4923189;29;20039;-77
2022/05/09 14:02:57;;;;;;;5.72;2.00;;;;;;;;;;4933460;29;20035;-76
2022/05/09 14:05:30;;;;;;;7.10;1.98;;;;;;;;;;4934319;29;20110;-76
2022/05/09 14:07:59;;;;;;;7.75;2.00;;;;;;;;;;4935134;29;20035;-77
2022/05/09 14:10:28;;;;;;;7.38;2.20;;;;;;;;;;4934151;29;20028;-77
2022/05/09 14:12:54;;;;;;;7.30;1.88;;;;;;;;;;4933564;29;20486;-76
2022/05/09 14:15:23;;;;;;;10.95;3.08;;;;;;;;;;4933648;29;20028;-77
2022/05/09 14:17:49;;;;;;;;;;;;;;;;;;4932910;29;20039;-77
2022/05/09 14:20:24;;;;;;;8.50;2.90;;;;;;;;;;4932829;29;19966;-77
2022/05/09 14:22:49;;;;;;;12.52;2.75;;;;;;;;;;4933369;29;20066;-76
2022/05/09 14:30:45;;;;;;;4.85;1.83;;;;;;;;;;4933984;29;20032;-77
2022/05/09 14:33:30;;;;;;;4.63;2.47;;;;;;;;;;4935156;29;20507;-77
2022/05/09 14:35:56;;;;;;;6.50;2.20;;;;;;;;;;4949683;29;20757;-77
2022/05/09 14:38:25;;;;;;;7.05;1.85;;;;;;;;;;4937540;29;20032;-76
2022/05/09 14:40:51;;;;;;;5.13;2.40;;;;;;;;;;4937588;29;20031;-76
2022/05/09 14:43:28;;;;;;;3.55;1.50;;;;;;;;;;4935824;29;20040;-76
2022/05/09 14:46:05;;;;;;;8.07;2.63;;;;;;;;;;4935937;29;20034;-76
2022/05/09 14:48:34;;;;;;;8.27;2.28;;;;;;;;;;4937227;29;20032;-76
2022/05/09 14:51:02;;;;;;;5.50;3.08;;;;;;;;;;4937382;29;20023;-76
2022/05/09 14:53:27;;;;;;;5.32;2.10;;;;;;;;;;4935894;29;20035;-74
2022/05/09 14:58:45;;;;;;;7.40;2.20;;;;;;;;;;4952031;29;20032;-76
2022/05/09 15:01:10;;;;;;;8.63;2.53;;;;;;;;;;4935871;29;20051;-75
2022/05/09 15:03:36;;;;;;;7.93;2.65;;;;;;;;;;4935830;29;20123;-77
2022/05/09 15:06:03;;;;;;;9.10;2.92;;;;;;;;;;4951647;29;20027;-76
2022/05/09 15:08:29;;;;;;;5.93;2.20;;;;;;;;;;4937082;29;20066;-75
2022/05/09 15:10:56;;;;;;;6.38;1.90;;;;;;;;;;4934444;29;20364;-74
2022/05/09 15:13:23;;;;;;;5.68;2.00;;;;;;;;;;4934814;29;20027;-76
2022/05/09 15:15:56;;;;;;;5.72;1.95;;;;;;;;;;4936611;29;20031;-75
2022/05/09 15:18:24;;;;;;;5.00;2.00;;;;;;;;;;4936839;29;20036;-74